Fabian Garcia SC Data

Date Time Air Temperature Relative Humidity Dewpoint Windchill Heat Index Wind Speed Wind Dir. Rain Solar Radiation Soil Temperature
2m 2m 3m 3m 10cm
US/Mountain F % F F F MPH deg in MJ/m^2 F
max avg avg
2021-10-14 00:05:00 52.1 64.6 40.5 52.1 52.1 0.0 1.0 0.1 167.5 150.8 0.00 0.0000081 67.4
2021-10-14 00:10:00 51.9 65.5 40.7 51.9 51.9 0.0 0.0 0.0 199.6 0.0 0.00 0.0000121 67.3
2021-10-14 00:15:00 51.3 64.4 39.7 51.3 51.3 0.0 0.0 0.0 207.9 0.0 0.00 0.0000040 67.2
2021-10-14 00:20:00 51.1 65.4 39.9 51.1 51.1 1.7 1.9 1.2 211.3 204.8 0.00 0.0000000 67.2
2021-10-14 00:25:00 50.3 66.4 39.6 50.3 50.3 0.0 1.9 1.0 221.3 208.7 0.00 0.0000000 67.1
2021-10-14 00:30:00 50.1 67.9 39.9 50.1 50.1 1.3 1.9 1.3 216.5 223.9 0.00 0.0000000 67.0
2021-10-14 00:35:00 50.0 68.9 40.2 50.0 50.0 1.5 1.5 1.1 211.9 218.0 0.00 0.0000020 67.0
2021-10-14 00:40:00 49.9 69.4 40.3 49.9 49.9 0.0 1.3 0.3 226.4 219.0 0.00 0.0000020 66.9
2021-10-14 00:45:00 49.5 70.2 40.2 49.5 49.5 0.0 0.0 0.0 228.1 0.0 0.00 0.0000000 66.8
2021-10-14 00:50:00 49.3 69.8 39.9 49.3 49.3 0.0 0.0 0.0 228.1 0.0 0.00 0.0000000 66.8
2021-10-14 00:55:00 49.3 70.9 40.3 49.3 49.3 0.0 0.0 0.0 228.1 0.0 0.00 0.0000000 66.7
2021-10-14 01:00:00 49.4 68.6 39.6 49.4 49.4 0.0 0.0 0.0 227.3 0.0 0.00 0.0000000 66.7
2021-10-14 01:05:00 49.6 67.8 39.4 49.6 49.6 0.0 0.0 0.0 202.8 0.0 0.00 0.0000000 66.6
2021-10-14 01:10:00 49.6 67.6 39.3 49.6 49.6 0.0 0.0 0.0 220.4 0.0 0.00 0.0000000 66.5
2021-10-14 01:15:00 49.7 67.6 39.4 49.7 49.7 2.1 2.2 1.4 225.4 217.5 0.00 0.0000000 66.5
2021-10-14 01:20:00 49.2 69.4 39.7 49.2 49.2 0.0 2.2 1.2 217.0 241.7 0.00 0.0000000 66.4
2021-10-14 01:25:00 49.1 68.6 39.3 49.1 49.1 2.2 2.2 1.6 210.1 213.5 0.00 0.0000000 66.3
2021-10-14 01:30:00 48.9 69.1 39.3 48.9 48.9 2.6 3.0 2.0 227.3 213.7 0.00 0.0000000 66.3
2021-10-14 01:35:00 48.5 70.7 39.4 48.5 48.5 0.0 2.4 0.5 291.3 211.0 0.00 0.0000000 66.2
2021-10-14 01:40:00 48.2 69.7 38.8 48.2 48.2 1.3 1.5 0.6 172.3 198.5 0.00 0.0000000 66.2
2021-10-14 01:45:00 48.4 69.3 38.8 48.4 48.4 1.2 1.9 1.2 163.9 169.6 0.00 0.0000000 66.1
2021-10-14 01:50:00 48.2 69.1 38.6 48.2 48.2 0.0 1.7 0.7 157.9 176.8 0.00 0.0000000 66.0
2021-10-14 01:55:00 47.8 71.4 39.0 47.8 47.8 0.8 1.2 0.4 226.7 165.1 0.00 0.0000000 66.0
2021-10-14 02:00:00 47.5 72.0 38.9 47.5 47.5 0.0 0.0 0.0 237.0 0.0 0.00 0.0000000 65.9
2021-10-14 02:05:00 47.4 72.3 38.9 47.4 47.4 0.0 1.3 0.2 229.6 226.7 0.00 0.0000000 65.9
2021-10-14 02:10:00 47.2 74.1 39.4 47.2 47.2 1.2 1.7 0.7 192.9 198.5 0.00 0.0000000 65.8
2021-10-14 02:15:00 47.0 73.9 39.1 47.0 47.0 1.5 1.7 0.8 212.2 205.5 0.00 0.0000000 65.8
2021-10-14 02:20:00 46.7 74.3 39.0 46.7 46.7 2.1 2.2 1.5 219.3 215.7 0.00 0.0000000 65.7
2021-10-14 02:25:00 46.7 74.4 39.0 46.7 46.7 0.0 2.1 1.5 196.0 209.4 0.00 0.0000000 65.6
2021-10-14 02:30:00 46.6 74.9 39.0 46.6 46.6 0.0 0.0 0.0 190.5 0.0 0.00 0.0000000 65.6
2021-10-14 02:35:00 46.7 75.6 39.4 46.7 46.7 0.0 0.0 0.0 211.9 0.0 0.00 0.0000000 65.5
2021-10-14 02:40:00 46.4 76.7 39.5 46.4 46.4 0.0 0.0 0.0 245.1 0.0 0.00 0.0000000 65.5
2021-10-14 02:45:00 46.1 75.3 38.8 46.1 46.1 0.0 0.0 0.0 245.1 0.0 0.00 0.0000000 65.4
2021-10-14 02:50:00 46.1 76.8 39.3 46.1 46.1 1.3 1.7 0.4 243.8 239.2 0.00 0.0000000 65.4
2021-10-14 02:55:00 46.0 76.3 38.9 46.0 46.0 0.0 2.4 1.4 206.6 217.2 0.00 0.0000000 65.3
2021-10-14 03:00:00 46.0 77.3 39.3 46.0 46.0 0.0 0.8 0.1 206.3 204.7 0.00 0.0000000 65.2
2021-10-14 03:05:00 45.7 77.0 38.9 45.7 45.7 0.0 0.0 0.0 199.5 0.0 0.00 0.0000000 65.2
2021-10-14 03:10:00 45.1 78.7 38.9 45.1 45.1 0.0 0.0 0.0 207.7 0.0 0.00 0.0000000 65.1
2021-10-14 03:15:00 44.8 79.3 38.8 44.8 44.8 0.0 0.0 0.0 194.8 0.0 0.00 0.0000000 65.1
2021-10-14 03:20:00 45.1 79.6 39.1 45.1 45.1 0.0 0.0 0.0 173.6 0.0 0.00 0.0000000 65.0
2021-10-14 03:25:00 44.9 79.2 38.9 44.9 44.9 0.0 0.0 0.0 188.2 0.0 0.00 0.0000000 65.0
2021-10-14 03:30:00 45.0 78.5 38.7 45.0 45.0 0.0 0.0 0.0 171.8 0.0 0.00 0.0000000 64.9
2021-10-14 03:35:00 45.3 77.4 38.7 45.3 45.3 0.0 2.4 0.6 192.7 172.5 0.00 0.0000000 64.8
2021-10-14 03:40:00 44.8 78.6 38.6 44.8 44.8 0.0 0.0 0.0 200.9 0.0 0.00 0.0000000 64.8
2021-10-14 03:45:00 45.1 78.7 38.8 45.1 45.1 0.0 0.0 0.0 218.1 0.0 0.00 0.0000000 64.7
2021-10-14 03:50:00 44.9 78.2 38.5 44.9 44.9 0.0 1.3 0.5 215.5 215.5 0.00 0.0000000 64.7
2021-10-14 03:55:00 44.9 77.6 38.4 44.9 44.9 1.9 1.9 0.9 220.1 227.5 0.00 0.0000000 64.6
2021-10-14 04:00:00 44.7 77.8 38.2 44.7 44.7 1.0 1.9 1.3 187.1 201.1 0.00 0.0000000 64.5
2021-10-14 04:05:00 44.7 77.7 38.2 44.7 44.7 0.0 0.8 0.0 183.6 187.1 0.00 0.0000000 64.5
2021-10-14 04:10:00 44.6 78.0 38.2 44.6 44.6 0.0 0.0 0.0 182.0 0.0 0.00 0.0000000 64.5
2021-10-14 04:15:00 44.0 79.7 38.1 44.0 44.0 0.0 1.7 0.7 187.6 189.1 0.00 0.0000020 64.4
2021-10-14 04:20:00 44.1 79.0 38.0 44.1 44.1 0.0 0.8 0.0 190.4 212.6 0.00 0.0000000 64.4
2021-10-14 04:25:00 44.1 79.5 38.1 44.1 44.1 0.0 0.0 0.0 191.9 0.0 0.00 0.0000000 64.3
2021-10-14 04:30:00 44.0 79.8 38.2 44.0 44.0 0.0 0.0 0.0 177.5 0.0 0.00 0.0000040 64.2
2021-10-14 04:35:00 43.8 80.6 38.2 43.8 43.8 0.0 0.0 0.0 214.0 0.0 0.00 0.0000020 64.2
2021-10-14 04:40:00 43.6 79.8 37.7 43.6 43.6 0.0 0.0 0.0 209.7 0.0 0.00 0.0000020 64.1
2021-10-14 04:45:00 43.6 80.1 37.9 43.6 43.6 0.0 0.0 0.0 200.1 0.0 0.00 0.0000040 64.1
2021-10-14 04:50:00 43.6 80.4 38.0 43.6 43.6 1.2 1.9 1.1 213.6 195.3 0.00 0.0000061 64.0
2021-10-14 04:55:00 43.5 80.6 37.9 43.5 43.5 0.0 1.2 0.2 205.4 207.4 0.00 0.0000000 64.0
2021-10-14 05:00:00 43.8 81.4 38.4 43.8 43.8 0.8 0.8 0.0 169.0 169.0 0.00 0.0000000 63.9
2021-10-14 05:05:00 43.3 82.0 38.2 43.3 43.3 0.0 1.0 0.2 239.2 209.7 0.00 0.0000000 63.8
2021-10-14 05:10:00 43.2 83.4 38.5 43.2 43.2 0.0 0.0 0.0 180.1 0.0 0.00 0.0000040 63.8
2021-10-14 05:15:00 43.0 83.9 38.5 43.0 43.0 1.0 1.3 0.2 214.7 220.5 0.00 0.0000040 63.7
2021-10-14 05:20:00 42.7 84.2 38.2 42.7 42.7 0.0 0.0 0.0 216.7 0.0 0.00 0.0000081 63.7
2021-10-14 05:25:00 42.6 84.3 38.2 42.6 42.6 0.0 0.0 0.0 216.7 0.0 0.00 0.0000101 63.6
2021-10-14 05:30:00 42.4 85.0 38.2 42.4 42.4 0.0 0.8 0.0 211.9 212.8 0.00 0.0000040 63.6
2021-10-14 05:35:00 42.7 84.6 38.4 42.7 42.7 0.0 0.0 0.0 215.3 0.0 0.00 0.0000061 63.5
2021-10-14 05:40:00 42.7 84.0 38.2 42.7 42.7 0.0 0.0 0.0 214.9 0.0 0.00 0.0000081 63.5
2021-10-14 05:45:00 42.5 83.4 37.8 42.5 42.5 0.0 0.0 0.0 200.2 0.0 0.00 0.0000040 63.4
2021-10-14 05:50:00 42.4 82.5 37.5 42.4 42.4 0.0 0.0 0.0 203.1 0.0 0.00 0.0000101 63.3
2021-10-14 05:55:00 42.5 81.9 37.4 42.5 42.5 0.0 0.0 0.0 225.3 0.0 0.00 0.0000040 63.3
2021-10-14 06:00:00 42.4 81.8 37.2 42.4 42.4 0.0 1.5 0.3 208.2 217.4 0.00 0.0000142 63.2
2021-10-14 06:05:00 42.5 81.9 37.4 42.5 42.5 1.3 1.3 0.7 209.7 223.6 0.00 0.0000020 63.2
2021-10-14 06:10:00 42.2 80.7 36.7 42.2 42.2 0.0 1.5 0.8 192.2 193.7 0.00 0.0000061 63.1
2021-10-14 06:15:00 42.3 80.8 36.8 42.3 42.3 0.0 1.7 0.7 180.3 193.5 0.00 0.0000121 63.1
2021-10-14 06:20:00 42.0 80.1 36.3 42.0 42.0 0.0 0.0 0.0 202.2 0.0 0.00 0.0000081 63.0
2021-10-14 06:25:00 42.0 80.5 36.4 42.0 42.0 0.0 0.0 0.0 209.9 0.0 0.00 0.0000081 63.0
2021-10-14 06:30:00 41.6 80.7 36.1 41.6 41.6 0.0 0.0 0.0 209.9 0.0 0.00 0.0000101 62.9
2021-10-14 06:35:00 41.5 80.9 36.1 41.5 41.5 0.0 0.0 0.0 294.1 0.0 0.00 0.0000101 62.9
2021-10-14 06:40:00 41.7 80.3 36.0 41.7 41.7 1.5 2.2 0.8 172.9 175.4 0.00 0.0000020 62.8
2021-10-14 06:45:00 41.7 80.6 36.1 41.7 41.7 0.0 1.9 1.0 183.5 172.2 0.00 0.0000121 62.8
2021-10-14 06:50:00 41.7 81.5 36.5 41.7 41.7 0.0 1.2 0.3 293.4 256.4 0.00 0.0000465 62.7
2021-10-14 06:55:00 41.7 81.5 36.5 41.7 41.7 1.5 1.5 0.9 192.6 167.0 0.00 0.0001032 62.7
2021-10-14 07:00:00 42.0 81.4 36.7 42.0 42.0 1.0 1.9 1.5 147.6 188.5 0.00 0.0003034 62.6
2021-10-14 07:05:00 41.6 81.5 36.4 41.6 41.6 0.0 1.0 0.1 189.0 166.0 0.00 0.0006412 62.6
2021-10-14 07:10:00 41.6 82.6 36.7 41.6 41.6 0.0 0.0 0.0 230.1 0.0 0.00 0.0011368 62.5
2021-10-14 07:15:00 41.1 83.4 36.5 41.1 41.1 0.0 0.0 0.0 204.4 0.0 0.00 0.0018083 62.5
2021-10-14 07:20:00 41.2 82.9 36.4 41.2 41.2 0.0 0.0 0.0 194.2 0.0 0.00 0.0026458 62.4
2021-10-14 07:25:00 41.7 81.0 36.3 41.7 41.7 1.7 1.7 0.1 189.5 190.4 0.00 0.0037138 62.4
2021-10-14 07:30:00 41.8 80.0 36.1 41.8 41.8 0.0 1.5 0.3 189.5 188.2 0.00 0.0075247 62.3
2021-10-14 07:35:00 42.1 78.1 35.7 42.1 42.1 0.0 0.0 0.0 206.2 0.0 0.00 0.0114755 62.3
2021-10-14 07:40:00 42.9 75.6 35.8 42.9 42.9 0.8 1.3 0.3 157.0 189.2 0.00 0.0160066 62.3
2021-10-14 07:45:00 44.1 72.3 35.8 44.1 44.1 0.8 1.0 0.3 198.6 164.1 0.00 0.0212802 62.2
2021-10-14 07:50:00 44.5 71.7 35.9 44.5 44.5 0.0 1.2 0.3 174.2 188.4 0.00 0.0272842 62.2
2021-10-14 07:55:00 45.8 68.2 35.9 45.8 45.8 0.0 1.2 0.2 133.3 151.9 0.00 0.0331636 62.1
2021-10-14 08:00:00 47.9 63.2 36.0 47.9 47.9 0.0 0.8 0.1 108.8 105.5 0.00 0.0383820 62.1
2021-10-14 08:05:00 49.5 60.4 36.4 49.5 49.5 0.0 0.8 0.0 192.6 118.3 0.00 0.0430747 62.0
2021-10-14 08:10:00 49.6 58.8 35.8 49.6 49.6 1.5 1.5 0.2 121.4 126.6 0.00 0.0479552 62.0
2021-10-14 08:15:00 50.5 57.6 36.1 50.5 50.5 0.0 3.1 1.5 319.2 316.6 0.00 0.0529519 62.0
2021-10-14 08:20:00 51.8 51.3 34.4 51.8 51.8 0.0 1.5 0.5 171.5 155.4 0.00 0.0580083 62.0
2021-10-14 08:25:00 52.8 50.3 34.8 52.8 52.8 0.0 0.0 0.0 217.3 0.0 0.00 0.0630402 61.9
2021-10-14 08:30:00 53.5 35.5 26.8 53.5 53.5 2.4 3.1 1.6 212.7 240.5 0.00 0.0681880 61.9
2021-10-14 08:35:00 54.4 36.4 28.2 54.4 54.4 1.3 3.0 1.6 268.0 255.9 0.00 0.0732412 61.9
2021-10-14 08:40:00 55.0 33.9 27.0 55.0 55.0 1.2 3.0 1.5 197.1 210.1 0.00 0.0782736 61.9
2021-10-14 08:45:00 56.5 32.2 27.1 56.5 56.5 0.0 1.5 0.7 198.9 237.5 0.00 0.0835865 61.9
2021-10-14 08:50:00 57.0 30.6 26.3 57.0 57.0 2.1 2.6 1.2 226.0 185.9 0.00 0.0885695 61.9
2021-10-14 08:55:00 57.6 30.7 26.9 57.6 57.6 1.0 2.2 1.4 24.6 66.6 0.00 0.0938764 61.9
2021-10-14 09:00:00 58.4 28.8 26.0 58.4 58.4 1.9 2.4 1.3 304.4 16.2 0.00 0.0989880 61.9
2021-10-14 09:05:00 58.3 29.7 26.8 58.3 58.3 0.0 2.1 0.8 149.7 289.0 0.00 0.1039320 61.9
2021-10-14 09:10:00 59.0 26.5 24.6 59.0 59.0 3.3 3.3 1.6 101.9 111.8 0.00 0.1088826 61.9
2021-10-14 09:15:00 59.4 27.7 26.1 59.4 59.4 2.4 3.7 2.0 152.7 134.7 0.00 0.1138125 61.9
2021-10-14 09:20:00 59.1 29.4 27.1 59.1 59.1 3.7 4.4 3.2 172.5 161.4 0.00 0.1187148 61.9
2021-10-14 09:25:00 58.8 30.9 28.1 58.8 58.8 2.4 4.4 3.0 205.5 194.4 0.00 0.1233713 61.9
2021-10-14 09:30:00 59.8 30.1 28.4 59.8 59.8 2.4 3.3 2.4 169.0 194.7 0.00 0.1281497 61.9
2021-10-14 09:35:00 60.3 27.3 26.4 60.3 60.3 3.8 4.2 3.1 176.9 186.7 0.00 0.1329095 62.0
2021-10-14 09:40:00 60.9 27.9 27.5 60.9 60.9 1.7 5.5 2.9 196.6 178.1 0.00 0.1373080 62.0
2021-10-14 09:45:00 62.0 29.2 29.5 62.0 62.0 2.6 4.0 2.7 185.3 150.7 0.00 0.1417285 62.0
2021-10-14 09:50:00 62.3 26.7 27.5 62.3 62.3 3.5 4.7 3.6 205.1 190.2 0.00 0.1462144 62.1
2021-10-14 09:55:00 63.2 24.3 26.1 63.2 63.2 3.8 5.3 3.0 198.6 212.3 0.00 0.1504644 62.2
2021-10-14 10:00:00 62.8 25.4 26.8 62.8 62.8 2.1 4.7 3.3 225.8 231.0 0.00 0.1547606 62.2
2021-10-14 10:05:00 63.5 23.7 25.8 63.5 63.5 3.0 5.5 3.9 215.3 221.2 0.00 0.1589716 62.3
2021-10-14 10:10:00 64.4 23.3 26.1 64.4 64.4 5.3 6.2 4.1 188.0 204.2 0.00 0.1630089 62.3
2021-10-14 10:15:00 65.1 20.1 23.2 65.1 65.1 7.1 8.7 5.7 220.3 201.2 0.00 0.1670871 62.4
2021-10-14 10:20:00 65.6 17.8 20.6 65.6 65.6 5.6 7.1 5.4 271.5 255.0 0.00 0.1709986 62.5
2021-10-14 10:25:00 66.0 20.7 24.5 66.0 66.0 5.5 10.6 6.5 287.7 253.1 0.00 0.1746846 62.5
2021-10-14 10:30:00 66.3 19.8 23.7 66.3 66.3 9.6 11.9 7.9 303.2 263.0 0.00 0.1780454 62.6
2021-10-14 10:35:00 66.4 19.4 23.3 66.4 66.4 9.0 12.8 8.5 238.5 263.2 0.00 0.1816760 62.7
2021-10-14 10:40:00 67.0 18.2 22.3 67.0 67.0 10.1 10.1 5.9 278.8 259.8 0.00 0.1846933 62.8
2021-10-14 10:45:00 67.3 19.4 24.2 67.3 67.3 11.2 15.6 9.5 253.4 259.4 0.00 0.1883342 62.9
2021-10-14 10:50:00 66.9 19.4 23.8 66.9 66.9 5.3 11.2 8.4 314.6 260.3 0.00 0.1914189 63.0
2021-10-14 10:55:00 67.0 19.9 24.4 67.0 67.0 8.5 14.9 8.7 234.3 249.3 0.00 0.1941030 63.1
2021-10-14 11:00:00 66.7 18.5 22.4 66.7 66.7 13.0 14.0 10.2 260.8 247.6 0.00 0.1971228 63.2
2021-10-14 11:05:00 66.6 17.6 21.1 66.6 66.6 11.9 14.4 9.4 242.2 255.6 0.00 0.1997157 63.3
2021-10-14 11:10:00 67.3 18.1 22.4 67.3 67.3 9.0 13.5 9.1 224.6 223.9 0.00 0.2031429 63.5
2021-10-14 11:15:00 67.4 17.3 21.5 67.4 67.4 8.5 14.6 9.1 247.5 253.0 0.00 0.2050672 63.6
2021-10-14 11:20:00 67.8 18.6 23.5 67.8 67.8 9.0 12.1 8.9 248.0 250.5 0.00 0.2085178 63.7
2021-10-14 11:25:00 67.7 18.2 22.9 67.7 67.7 9.4 16.5 10.0 236.1 231.5 0.00 0.2119498 63.8
2021-10-14 11:30:00 68.1 16.8 21.3 68.1 68.1 10.5 15.5 9.6 291.1 247.5 0.00 0.2135917 64.0
2021-10-14 11:35:00 67.9 17.2 21.8 67.9 67.9 8.1 13.5 10.2 222.0 241.3 0.00 0.2167353 64.1
2021-10-14 11:40:00 67.7 18.2 22.8 67.7 67.7 8.0 13.9 9.2 263.7 246.1 0.00 0.2177785 64.2
2021-10-14 11:45:00 68.2 16.2 20.5 68.2 68.2 7.6 14.7 10.7 286.2 262.4 0.00 0.2195304 64.3
2021-10-14 11:50:00 68.3 16.7 21.3 68.3 68.3 8.5 15.1 9.9 265.8 260.3 0.00 0.2209326 64.4
2021-10-14 11:55:00 68.7 17.1 22.2 68.7 68.7 11.7 14.0 10.6 221.7 252.0 0.00 0.2226982 64.6
2021-10-14 12:00:00 69.0 18.1 23.8 69.0 69.0 9.9 14.2 9.5 263.6 247.8 0.00 0.2241877 64.7
2021-10-14 12:05:00 69.3 16.4 21.7 69.3 69.3 13.1 15.3 11.1 264.3 249.1 0.00 0.2256342 64.8
2021-10-14 12:10:00 69.1 16.4 21.6 69.1 69.1 8.7 14.4 10.5 253.8 256.4 0.00 0.2271672 64.9
2021-10-14 12:15:00 69.0 16.2 21.3 69.0 69.0 9.7 17.4 11.4 249.7 252.1 0.00 0.2281856 65.1
2021-10-14 12:20:00 68.8 15.2 19.5 68.8 68.8 13.0 14.7 11.2 273.4 255.3 0.00 0.2290996 65.2
2021-10-14 12:25:00 69.6 15.9 21.3 69.6 69.6 12.6 13.9 9.7 225.5 240.7 0.00 0.2297852 65.3
2021-10-14 12:30:00 69.3 14.8 19.4 69.3 69.3 14.9 15.6 10.2 271.5 253.1 0.00 0.2298961 65.4
2021-10-14 12:35:00 69.5 15.9 21.1 69.5 69.5 5.6 13.0 9.2 218.8 252.4 0.00 0.2308793 65.5
2021-10-14 12:40:00 69.8 14.5 19.3 69.8 69.8 12.4 17.6 11.9 272.4 255.1 0.00 0.2314965 65.6
2021-10-14 12:45:00 70.5 16.1 22.2 70.5 70.5 6.7 13.1 7.9 254.5 260.0 0.00 0.2318186 65.7
2021-10-14 12:50:00 70.1 14.1 18.8 70.1 70.1 11.2 14.0 9.9 287.3 262.3 0.00 0.2315677 65.8
2021-10-14 12:55:00 69.0 14.0 17.7 69.0 69.0 10.3 17.4 11.7 289.0 254.5 0.00 0.2328592 65.9
2021-10-14 13:00:00 70.5 13.8 18.6 70.5 70.5 12.1 16.9 10.8 256.1 244.1 0.00 0.2321845 66.0
2021-10-14 13:05:00 70.4 14.1 19.0 70.4 70.4 10.1 15.1 10.0 286.1 253.1 0.00 0.2315670 66.0
2021-10-14 13:10:00 70.7 13.9 19.0 70.7 70.7 15.1 15.1 9.7 210.8 241.5 0.00 0.2311592 66.1
2021-10-14 13:15:00 70.3 14.1 19.0 70.3 70.3 5.8 15.3 9.6 221.4 244.4 0.00 0.2300801 66.2
2021-10-14 13:20:00 70.4 14.3 19.4 70.4 70.4 10.1 14.9 9.5 237.8 262.6 0.00 0.2296325 66.3
2021-10-14 13:25:00 70.4 13.2 17.5 70.4 70.4 9.9 15.6 11.5 213.1 229.7 0.00 0.2289424 66.4
2021-10-14 13:30:00 71.3 13.8 19.3 71.3 71.3 7.6 13.0 8.5 220.0 224.0 0.00 0.2285441 66.5
2021-10-14 13:35:00 71.5 13.9 19.6 71.5 71.5 5.3 13.7 9.3 271.0 232.4 0.00 0.2279990 66.5
2021-10-14 13:40:00 71.3 13.3 18.4 71.3 71.3 12.6 16.5 10.4 273.8 254.2 0.00 0.2271424 66.7
2021-10-14 13:45:00 71.0 13.7 18.8 71.0 71.0 7.2 15.6 9.9 298.7 252.9 0.00 0.2246819 66.8
2021-10-14 13:50:00 71.3 14.4 20.2 71.3 71.3 9.7 13.1 8.8 219.3 246.7 0.00 0.2236207 66.9
2021-10-14 13:55:00 71.6 13.8 19.5 71.6 71.6 7.2 14.0 9.6 207.7 229.6 0.00 0.2209469 67.0
2021-10-14 14:00:00 72.4 13.0 18.7 72.4 72.4 7.6 13.9 7.9 278.6 240.0 0.00 0.2201524 67.2
2021-10-14 14:05:00 72.5 12.1 17.2 72.5 72.5 9.7 12.2 8.8 227.3 242.3 0.00 0.2189089 67.3
2021-10-14 14:10:00 72.7 12.2 17.5 72.7 72.7 9.4 12.6 7.9 204.6 230.8 0.00 0.2164354 67.5
2021-10-14 14:15:00 72.3 11.1 15.0 72.3 72.3 12.8 14.6 11.0 221.5 230.6 0.00 0.2151416 67.6
2021-10-14 14:20:00 72.7 11.6 16.2 72.7 72.7 9.7 12.8 9.4 278.9 221.5 0.00 0.2130826 67.8
2021-10-14 14:25:00 73.1 11.4 16.3 73.1 73.1 12.4 14.7 10.2 263.4 242.1 0.00 0.2109325 67.9
2021-10-14 14:30:00 72.5 11.2 15.4 72.5 72.5 8.1 14.0 10.1 246.2 251.4 0.00 0.2092372 68.1
2021-10-14 14:35:00 72.4 10.2 13.2 72.4 72.4 10.5 16.4 10.7 266.3 252.1 0.00 0.2062287 68.2
2021-10-14 14:40:00 73.3 10.5 14.5 73.3 73.3 10.3 16.2 9.5 283.9 247.1 0.00 0.2032058 68.4
2021-10-14 14:45:00 73.1 10.9 15.2 73.1 73.1 12.4 14.2 9.5 233.1 245.8 0.00 0.2003985 68.5
2021-10-14 14:50:00 72.6 10.6 14.2 72.6 72.6 13.3 16.9 11.8 259.4 253.5 0.00 0.1973857 68.7
2021-10-14 14:55:00 73.0 10.3 13.9 73.0 73.0 8.7 13.9 9.8 177.3 231.3 0.00 0.1945285 68.9
2021-10-14 15:00:00 73.3 12.0 17.7 73.3 73.3 8.0 11.5 7.7 271.5 244.4 0.00 0.1913500 69.0
2021-10-14 15:05:00 73.0 10.5 14.4 73.0 73.0 8.8 16.9 11.8 256.0 247.8 0.00 0.1891364 69.1
2021-10-14 15:10:00 73.6 10.0 13.6 73.6 73.6 12.1 13.9 10.1 233.9 239.7 0.00 0.1857811 69.3
2021-10-14 15:15:00 73.2 11.1 15.8 73.2 73.2 10.6 19.6 11.2 228.0 244.9 0.00 0.1829101 69.4
2021-10-14 15:20:00 72.9 11.4 16.1 72.9 72.9 10.1 16.2 11.8 254.5 252.1 0.00 0.1789925 69.5
2021-10-14 15:25:00 72.7 10.8 14.7 72.7 72.7 9.9 14.0 10.3 265.7 248.5 0.00 0.1753861 69.7
2021-10-14 15:30:00 73.5 10.0 13.6 73.5 73.5 10.5 14.2 9.6 292.5 249.0 0.00 0.1711895 69.8
2021-10-14 15:35:00 73.4 10.6 14.9 73.4 73.4 11.7 14.4 9.9 266.6 238.0 0.00 0.1674380 69.9
2021-10-14 15:40:00 73.9 10.6 15.2 73.9 73.9 10.3 14.7 10.3 221.3 236.2 0.00 0.1641255 70.0
2021-10-14 15:45:00 73.6 10.2 14.1 73.6 73.6 10.3 16.4 10.3 267.2 241.1 0.00 0.1594301 70.1
2021-10-14 15:50:00 73.8 10.0 13.8 73.8 73.8 13.0 15.5 10.5 251.6 253.9 0.00 0.1556391 70.2
2021-10-14 15:55:00 73.2 11.1 15.7 73.2 73.2 11.7 16.4 11.2 260.3 267.6 0.00 0.1511396 70.3
2021-10-14 16:00:00 74.0 11.8 17.8 74.0 74.0 7.2 12.6 8.3 260.4 242.9 0.00 0.1468011 70.4
2021-10-14 16:05:00 74.1 11.1 16.4 74.1 74.1 13.9 14.7 9.8 245.1 268.9 0.00 0.1426631 70.5
2021-10-14 16:10:00 73.5 11.1 16.0 73.5 73.5 13.3 17.2 11.9 280.4 253.6 0.00 0.1373160 70.6
2021-10-14 16:15:00 73.7 11.2 16.4 73.7 73.7 13.9 13.9 9.9 279.5 250.6 0.00 0.1334526 70.7
2021-10-14 16:20:00 73.2 11.7 17.0 73.2 73.2 9.4 17.1 12.2 266.3 255.2 0.00 0.1285763 70.8
2021-10-14 16:25:00 73.6 10.9 15.7 73.6 73.6 19.0 19.0 11.6 259.8 255.6 0.00 0.1239159 70.8
2021-10-14 16:30:00 73.1 11.6 16.6 73.1 73.1 9.4 14.4 11.5 247.4 251.5 0.00 0.1183717 70.9
2021-10-14 16:35:00 73.2 11.4 16.4 73.2 73.2 10.3 20.5 12.1 259.4 248.5 0.00 0.1139619 70.9
2021-10-14 16:40:00 73.0 11.6 16.5 73.0 73.0 9.4 15.1 10.4 271.6 264.0 0.00 0.1087801 71.0
2021-10-14 16:45:00 73.1 12.2 17.9 73.1 73.1 14.6 14.6 10.6 257.4 257.9 0.00 0.1039942 71.0
2021-10-14 16:50:00 73.1 12.1 17.7 73.1 73.1 7.2 16.2 11.9 257.9 252.7 0.00 0.0988403 71.1
2021-10-14 16:55:00 73.3 12.7 18.8 73.3 73.3 9.0 10.8 8.1 215.5 242.8 0.00 0.0935257 71.1
2021-10-14 17:00:00 73.0 12.6 18.6 73.0 73.0 11.2 13.0 9.4 225.7 240.2 0.00 0.0888615 71.1
2021-10-14 17:05:00 72.5 13.2 19.2 72.5 72.5 6.7 14.0 9.9 275.6 247.4 0.00 0.0835860 71.2
2021-10-14 17:10:00 73.0 13.5 20.0 73.0 73.0 13.1 13.1 7.2 232.8 242.3 0.00 0.0788913 71.2
2021-10-14 17:15:00 72.4 13.0 18.8 72.4 72.4 10.8 13.9 10.0 257.2 231.7 0.00 0.0741517 71.2
2021-10-14 17:20:00 72.8 13.7 20.2 72.8 72.8 13.0 13.0 8.8 244.4 243.7 0.00 0.0693757 71.2
2021-10-14 17:25:00 72.3 13.9 20.3 72.3 72.3 11.2 14.4 9.0 250.2 242.6 0.00 0.0645740 71.2
2021-10-14 17:30:00 72.0 13.9 20.0 72.0 72.0 8.8 11.5 8.6 224.0 235.3 0.00 0.0592259 71.2
2021-10-14 17:35:00 72.1 14.1 20.4 72.1 72.1 8.0 14.0 9.0 256.7 256.4 0.00 0.0545438 71.2
2021-10-14 17:40:00 71.9 13.8 19.7 71.9 71.9 11.0 14.9 9.4 232.5 252.4 0.00 0.0493812 71.2
2021-10-14 17:45:00 71.5 13.6 19.0 71.5 71.5 13.5 15.5 10.5 282.8 248.6 0.00 0.0447198 71.2
2021-10-14 17:50:00 71.2 14.4 20.2 71.2 71.2 7.6 15.5 11.0 243.9 252.1 0.00 0.0395722 71.2
2021-10-14 17:55:00 70.8 14.3 19.7 70.8 70.8 11.5 12.1 9.4 240.6 258.5 0.00 0.0344349 71.2
2021-10-14 18:00:00 70.8 14.8 20.6 70.8 70.8 4.9 11.5 7.2 268.9 249.3 0.00 0.0285048 71.2
2021-10-14 18:05:00 70.2 14.9 20.2 70.2 70.2 6.0 13.3 9.0 242.1 235.2 0.00 0.0225635 71.1
2021-10-14 18:10:00 70.2 14.3 19.3 70.2 70.2 5.1 10.3 6.6 233.4 249.0 0.00 0.0170705 71.1
2021-10-14 18:15:00 69.8 14.9 19.9 69.8 69.8 6.0 9.0 5.6 237.8 239.2 0.00 0.0121910 71.0
2021-10-14 18:20:00 69.5 14.8 19.5 69.5 69.5 6.0 11.0 5.6 236.9 234.4 0.00 0.0062269 71.0
2021-10-14 18:25:00 68.9 15.0 19.3 68.9 68.9 7.6 10.6 4.3 273.2 225.7 0.00 0.0035709 70.9
2021-10-14 18:30:00 68.6 15.5 19.9 68.6 68.6 5.8 5.8 4.0 227.6 238.8 0.00 0.0026136 70.9
2021-10-14 18:35:00 68.4 15.0 19.0 68.4 68.4 8.3 11.0 6.8 255.7 256.1 0.00 0.0017147 70.8
2021-10-14 18:40:00 68.3 15.5 19.5 68.3 68.3 3.3 8.3 5.1 213.2 243.4 0.00 0.0011330 70.8
2021-10-14 18:45:00 67.8 15.9 19.8 67.8 67.8 4.6 7.1 4.4 223.2 244.4 0.00 0.0006604 70.7
2021-10-14 18:50:00 67.5 15.9 19.6 67.5 67.5 3.7 8.0 4.7 202.5 241.0 0.00 0.0003312 70.7
2021-10-14 18:55:00 67.5 16.0 19.7 67.5 67.5 5.6 7.6 5.0 227.1 232.9 0.00 0.0001313 70.6
2021-10-14 19:00:00 67.1 16.1 19.5 67.1 67.1 7.6 11.9 7.1 248.9 251.0 0.00 0.0000606 70.5
2021-10-14 19:05:00 67.2 16.2 19.7 67.2 67.2 8.5 12.2 7.5 261.7 252.0 0.00 0.0000364 70.5
2021-10-14 19:10:00 67.3 16.0 19.5 67.3 67.3 9.4 12.6 7.9 263.7 258.6 0.00 0.0000182 70.4
2021-10-14 19:15:00 67.1 16.1 19.5 67.1 67.1 7.6 11.2 6.9 257.7 248.9 0.00 0.0000000 70.3
2021-10-14 19:20:00 67.2 15.9 19.3 67.2 67.2 2.4 13.5 6.7 275.0 257.9 0.00 0.0000020 70.3
2021-10-14 19:25:00 66.7 16.8 20.2 66.7 66.7 5.5 8.3 5.6 319.5 274.7 0.00 0.0000000 70.2
2021-10-14 19:30:00 66.8 16.2 19.3 66.8 66.8 5.3 12.4 6.6 240.8 269.4 0.00 0.0000020 70.1
2021-10-14 19:35:00 66.8 16.1 19.3 66.8 66.8 6.7 10.1 6.5 313.9 277.7 0.00 0.0000000 70.1
2021-10-14 19:40:00 66.7 16.2 19.4 66.7 66.7 7.1 12.6 6.0 295.6 269.7 0.00 0.0000000 70.0
2021-10-14 19:45:00 66.8 16.2 19.4 66.8 66.8 4.6 10.1 6.6 276.9 269.8 0.00 0.0000000 69.9
2021-10-14 19:50:00 66.4 15.9 18.6 66.4 66.4 4.7 9.4 6.0 284.6 268.9 0.00 0.0000000 69.8
2021-10-14 19:55:00 66.5 16.4 19.5 66.5 66.5 4.7 9.6 6.1 227.2 254.9 0.00 0.0000000 69.7
2021-10-14 20:00:00 66.1 16.5 19.3 66.1 66.1 3.5 6.0 3.8 263.5 260.9 0.00 0.0000000 69.7
2021-10-14 20:05:00 65.5 16.7 19.1 65.5 65.5 2.1 4.2 2.4 282.7 282.4 0.00 0.0000000 69.6
2021-10-14 20:10:00 65.4 17.2 19.7 65.4 65.4 2.1 6.0 3.3 276.5 285.0 0.00 0.0000000 69.5
2021-10-14 20:15:00 64.5 17.4 19.2 64.5 64.5 6.0 6.0 2.7 278.4 307.8 0.00 0.0000000 69.5
2021-10-14 20:20:00 65.0 17.2 19.4 65.0 65.0 2.4 9.2 4.8 303.4 277.9 0.00 0.0000000 69.4
2021-10-14 20:25:00 64.8 17.2 19.3 64.8 64.8 2.6 6.5 3.6 342.1 288.2 0.00 0.0000000 69.4
2021-10-14 20:30:00 64.3 17.6 19.3 64.3 64.3 2.2 5.1 3.1 298.3 302.7 0.00 0.0000000 69.3
2021-10-14 20:35:00 64.3 17.6 19.3 64.3 64.3 1.9 6.0 2.8 309.2 311.8 0.00 0.0000000 69.2
2021-10-14 20:40:00 64.0 17.3 18.7 64.0 64.0 3.8 8.5 3.0 263.4 302.8 0.00 0.0000000 69.1
2021-10-14 20:45:00 64.0 17.4 18.8 64.0 64.0 3.5 5.8 3.1 263.0 292.1 0.00 0.0000020 69.0
2021-10-14 20:50:00 64.1 17.5 19.0 64.1 64.1 4.4 5.5 2.9 255.1 276.7 0.00 0.0000000 69.0
2021-10-14 20:55:00 63.9 17.8 19.3 63.9 63.9 4.0 7.1 4.2 268.0 272.8 0.00 0.0000000 68.9
2021-10-14 21:00:00 63.9 18.1 19.6 63.9 63.9 6.2 6.5 4.4 276.4 270.4 0.00 0.0000020 68.8
2021-10-14 21:05:00 63.3 17.9 18.9 63.3 63.3 7.1 8.5 5.9 270.4 272.2 0.00 0.0000000 68.7
2021-10-14 21:10:00 63.3 18.2 19.3 63.3 63.3 6.9 10.6 5.3 245.5 269.2 0.00 0.0000000 68.6
2021-10-14 21:15:00 63.5 17.9 19.0 63.5 63.5 5.1 9.4 5.6 285.7 274.2 0.00 0.0000000 68.6
2021-10-14 21:20:00 63.3 18.4 19.6 63.3 63.3 4.6 7.8 5.0 275.6 270.7 0.00 0.0000000 68.5
2021-10-14 21:25:00 62.9 18.5 19.3 62.9 62.9 4.9 7.6 5.2 268.2 261.8 0.00 0.0000000 68.4
2021-10-14 21:30:00 62.1 19.5 19.9 62.1 62.1 2.6 4.4 2.2 39.6 279.0 0.00 0.0000000 68.3
2021-10-14 21:35:00 61.9 19.4 19.7 61.9 61.9 2.8 3.8 2.9 9.1 14.5 0.00 0.0000000 68.3
2021-10-14 21:40:00 62.4 19.4 20.1 62.4 62.4 3.3 5.1 4.1 19.5 28.6 0.00 0.0000000 68.2
2021-10-14 21:45:00 61.9 19.0 19.1 61.9 61.9 3.0 3.5 2.6 40.4 37.5 0.00 0.0000040 68.1
2021-10-14 21:50:00 61.8 20.1 20.4 61.8 61.8 1.2 3.8 1.5 183.2 39.7 0.00 0.0000061 68.1
2021-10-14 21:55:00 61.4 19.9 19.9 61.4 61.4 2.2 4.0 2.0 292.6 52.4 0.00 0.0000040 68.0
2021-10-14 22:00:00 61.1 18.9 18.4 61.1 61.1 2.4 3.5 2.1 265.1 256.3 0.00 0.0000182 67.9
2021-10-14 22:05:00 61.9 20.8 21.3 61.9 61.9 4.0 5.5 3.8 246.0 258.6 0.00 0.0000243 67.8
2021-10-14 22:10:00 60.8 19.7 19.1 60.8 60.8 3.7 5.5 3.8 250.7 246.4 0.00 0.0000303 67.8
2021-10-14 22:15:00 60.7 20.8 20.3 60.7 60.7 6.5 6.5 3.5 268.5 240.2 0.00 0.0000020 67.7
2021-10-14 22:20:00 61.1 19.3 18.8 61.1 61.1 1.7 7.1 3.3 274.4 253.1 0.00 0.0000000 67.6
2021-10-14 22:25:00 61.3 19.8 19.6 61.3 61.3 4.4 6.0 3.4 332.2 2.3 0.00 0.0000121 67.6
2021-10-14 22:30:00 62.2 18.4 18.6 62.2 62.2 2.2 7.2 4.6 63.6 355.2 0.00 0.0000020 67.5
2021-10-14 22:35:00 62.4 18.3 18.7 62.4 62.4 4.0 4.0 1.9 97.3 91.3 0.00 0.0000040 67.4
2021-10-14 22:40:00 61.2 19.7 19.4 61.2 61.2 1.0 3.8 1.6 85.6 120.3 0.00 0.0000040 67.3
2021-10-14 22:45:00 61.3 20.0 19.8 61.3 61.3 2.4 4.7 3.1 66.2 59.3 0.00 0.0000081 67.3
2021-10-14 22:50:00 61.6 18.8 18.7 61.6 61.6 3.0 5.6 3.2 28.5 32.0 0.00 0.0000000 67.2
2021-10-14 22:55:00 62.3 18.2 18.5 62.3 62.3 5.5 5.5 4.4 0.1 3.3 0.00 0.0000020 67.1
2021-10-14 23:00:00 61.7 19.0 19.0 61.7 61.7 6.2 6.7 4.0 340.3 333.2 0.00 0.0000000 67.0
2021-10-14 23:05:00 61.6 18.9 18.8 61.6 61.6 4.9 7.6 3.9 321.4 284.4 0.00 0.0000000 67.0
2021-10-14 23:10:00 62.3 18.4 18.7 62.3 62.3 4.4 8.8 4.2 280.7 282.1 0.00 0.0000000 66.9
2021-10-14 23:15:00 62.9 18.1 18.8 62.9 62.9 1.5 11.0 4.6 299.3 279.3 0.00 0.0000000 66.9
2021-10-14 23:20:00 62.9 18.8 19.7 62.9 62.9 1.9 3.8 2.8 253.2 280.6 0.00 0.0000000 66.8
2021-10-14 23:25:00 61.8 18.9 18.9 61.8 61.8 2.2 2.4 1.3 267.9 271.5 0.00 0.0000000 66.7
2021-10-14 23:30:00 61.6 19.1 19.0 61.6 61.6 1.9 5.6 2.2 290.8 291.1 0.00 0.0000081 66.7
2021-10-14 23:35:00 61.5 19.1 19.0 61.5 61.5 5.1 8.1 4.7 8.8 269.0 0.00 0.0000061 66.6
2021-10-14 23:40:00 61.0 19.7 19.2 61.0 61.0 1.0 6.2 2.5 310.8 287.7 0.00 0.0000000 66.5
2021-10-14 23:45:00 60.4 20.1 19.3 60.4 60.4 1.0 4.9 2.7 260.9 275.3 0.00 0.0000000 66.4
2021-10-14 23:50:00 59.9 21.2 20.0 59.9 59.9 3.3 4.6 1.9 265.6 254.8 0.00 0.0000000 66.4
2021-10-14 23:55:00 59.5 23.0 21.6 59.5 59.5 2.8 4.9 3.5 263.3 251.5 0.00 0.0000000 66.3
2021-10-15 00:00:00 59.0 22.8 21.0 59.0 59.0 1.2 4.6 2.6 240.3 238.6 0.00 0.0000000 66.3

Data is courtesy of the NM Climate Center. DO NOT USE IN LEGAL PROCEEDINGS.